Brjansk, Russia
Current Conditions -  °F | °C
As of 3:00 PM on Wednesday 28 Jan 2015 (Local Time) from UUBP Reporting Station
Overcast Overcast  
Wind Chill: 21°   Ceiling: 800
Heat Index: 28°   Visibility: 4mi
Dew Point: 27°   Wind: 7mph
Humidity: 93%   Direction: 180°S
Pressure: 29.88"   Gusts: NA
Location:  53.26°N, 34.42°E
Report Text: UUBP 281200Z 18003MPS 6000 OVC008 M02/M03 Q1012 NOSIG 16850135RMK QFE741
Loading
Personal Weather Stations






























Interactive Weather Map New forecast layout! Learn more

10-Day Weather Forecast

Advertisements
Track Severe Weather on mobile